Time;durP1;ratioP1;P1;durP2;ratioP2;P2;SDS_P1;SDS_P2;PMS_P1;PMS_P2;Temp;Humidity;BMP_temperature;BMP_pressure;BME280_temperature;BME280_humidity;BME280_pressure;Samples;Min_cycle;Max_cycle;Signal;HPM_P1;HPM_P2
2022/07/20 00:01:47;;;;;;;9.50;5.82;;;26.50;41.30;;;;;;5114396;28;20119;-74
2022/07/20 00:04:13;;;;;;;7.22;5.50;;;26.40;41.30;;;;;;5096512;28;20032;-74
2022/07/20 00:06:38;;;;;;;7.88;5.68;;;26.40;41.70;;;;;;5114111;28;20074;-73
2022/07/20 00:11:48;;;;;;;7.47;5.28;;;26.30;42.70;;;;;;5099345;28;20043;-74
2022/07/20 00:14:14;;;;;;;9.88;5.88;;;26.30;42.70;;;;;;5113509;28;20062;-73
2022/07/20 00:16:40;;;;;;;8.48;5.93;;;26.40;42.30;;;;;;5114133;28;20111;-74
2022/07/20 00:19:06;;;;;;;7.60;6.25;;;26.50;42.40;;;;;;5096284;28;20032;-74
2022/07/20 00:21:31;;;;;;;13.00;6.57;;;26.50;41.60;;;;;;5114049;28;20028;-74
2022/07/20 00:23:57;;;;;;;8.98;5.80;;;26.60;40.80;;;;;;5114069;28;20066;-74
2022/07/20 00:26:23;;;;;;;8.98;6.28;;;26.70;41.30;;;;;;5113896;28;20031;-74
2022/07/20 00:28:50;;;;;;;7.32;5.75;;;26.60;41.80;;;;;;5113872;28;20024;-74
2022/07/20 00:31:17;;;;;;;8.50;6.13;;;26.50;42.80;;;;;;5113931;28;20020;-74
2022/07/20 00:33:46;;;;;;;9.15;6.18;;;26.40;43.00;;;;;;5113921;28;20105;-74
2022/07/20 00:36:13;;;;;;;9.60;6.43;;;26.20;43.80;;;;;;5096627;28;20053;-74
2022/07/20 00:38:38;;;;;;;7.78;5.88;;;26.10;45.30;;;;;;5113778;28;20052;-74
2022/07/20 00:41:04;;;;;;;11.05;6.35;;;26.00;44.80;;;;;;5113775;28;20035;-74
2022/07/20 00:43:52;;;;;;;8.35;5.95;;;26.00;44.50;;;;;;5113726;28;20028;-74
2022/07/20 00:46:18;;;;;;;11.45;6.30;;;26.00;44.00;;;;;;5095743;28;20028;-74
2022/07/20 00:48:44;;;;;;;7.72;6.53;;;25.90;44.70;;;;;;5113819;28;20027;-74
2022/07/20 00:51:10;;;;;;;7.80;5.75;;;25.90;44.40;;;;;;5079045;28;20028;-74
2022/07/20 00:53:35;;;;;;;9.25;6.70;;;25.80;44.80;;;;;;5113572;28;20052;-73
2022/07/20 00:56:02;;;;;;;10.13;6.82;;;25.70;44.70;;;;;;5095858;28;20032;-74
2022/07/20 00:58:27;;;;;;;7.95;6.57;;;25.70;44.70;;;;;;5095885;28;20028;-74
2022/07/20 01:00:53;;;;;;;11.27;6.65;;;25.70;44.60;;;;;;5113551;28;20039;-74
2022/07/20 01:03:18;;;;;;;13.63;6.90;;;25.60;44.60;;;;;;5113438;28;20036;-74
2022/07/20 01:05:44;;;;;;;10.23;7.00;;;25.60;44.30;;;;;;5113106;28;20067;-74
2022/07/20 01:08:09;;;;;;;11.23;7.30;;;25.60;45.30;;;;;;5095674;28;20474;-74
2022/07/20 01:10:35;;;;;;;11.15;7.20;;;25.60;45.10;;;;;;5095575;28;20043;-74
2022/07/20 01:13:01;;;;;;;8.43;6.78;;;25.50;45.00;;;;;;5113395;28;20027;-74
2022/07/20 01:15:27;;;;;;;9.90;6.97;;;25.50;45.00;;;;;;5113380;28;20127;-73
2022/07/20 01:17:52;;;;;;;9.55;7.60;;;25.50;44.70;;;;;;5095577;28;20037;-73
2022/07/20 01:20:18;;;;;;;9.13;6.90;;;25.50;44.00;;;;;;5113359;28;20105;-74
2022/07/20 01:22:45;;;;;;;13.63;7.68;;;25.40;45.20;;;;;;5113345;28;20036;-74
2022/07/20 01:25:11;;;;;;;10.45;7.65;;;25.40;44.80;;;;;;5098257;28;20020;-74
2022/07/20 01:27:37;;;;;;;11.13;7.70;;;25.40;45.60;;;;;;5117397;28;20024;-74
2022/07/20 01:30:03;;;;;;;10.68;7.05;;;25.40;45.50;;;;;;5117260;28;20073;-74
2022/07/20 01:32:29;;;;;;;9.93;7.25;;;25.40;43.40;;;;;;5117332;28;20027;-74
2022/07/20 01:34:55;;;;;;;10.45;8.07;;;25.40;44.40;;;;;;5117249;28;20471;-74
2022/07/20 01:37:21;;;;;;;10.63;8.23;;;25.30;44.20;;;;;;5082569;28;20043;-74
2022/07/20 01:39:46;;;;;;;11.30;8.10;;;25.30;45.10;;;;;;5117209;28;20028;-74
2022/07/20 01:42:12;;;;;;;11.82;8.40;;;25.30;44.90;;;;;;5099305;28;20552;-74
2022/07/20 01:44:37;;;;;;;12.05;8.45;;;25.20;44.50;;;;;;5099086;28;20047;-74
2022/07/20 01:47:03;;;;;;;12.85;9.00;;;25.00;44.30;;;;;;5099156;28;20028;-74
2022/07/20 01:49:29;;;;;;;11.35;7.45;;;24.90;43.80;;;;;;5099022;28;20035;-74
2022/07/20 01:51:54;;;;;;;7.65;6.68;;;24.80;43.60;;;;;;5116961;28;20032;-74
2022/07/20 01:54:20;;;;;;;10.85;7.22;;;24.70;44.00;;;;;;5099054;28;20076;-74
2022/07/20 01:56:46;;;;;;;8.80;6.38;;;24.90;43.80;;;;;;5116865;28;20044;-74
2022/07/20 01:59:11;;;;;;;11.10;7.80;;;24.70;44.00;;;;;;5116782;28;20036;-74
2022/07/20 02:01:37;;;;;;;9.38;6.45;;;24.50;44.90;;;;;;5116766;28;20024;-74
2022/07/20 02:04:04;;;;;;;7.90;6.45;;;24.40;44.20;;;;;;5116699;28;20020;-74
2022/07/20 02:06:31;;;;;;;8.07;6.00;;;24.40;43.80;;;;;;5098667;28;20055;-73
2022/07/20 02:08:56;;;;;;;7.40;5.95;;;24.40;44.40;;;;;;5081980;28;20021;-74
2022/07/20 02:11:22;;;;;;;10.73;6.40;;;24.50;43.70;;;;;;5116574;28;20027;-73
2022/07/20 02:13:48;;;;;;;11.38;5.90;;;24.50;43.30;;;;;;5116645;28;20028;-73
2022/07/20 02:16:16;;;;;;;8.35;5.85;;;24.50;44.00;;;;;;5116593;28;20058;-74
2022/07/20 02:18:45;;;;;;;12.95;7.05;;;24.60;44.90;;;;;;5116558;28;20024;-74
2022/07/20 02:21:15;;;;;;;9.05;6.55;;;24.60;45.60;;;;;;5116370;28;20107;-74
2022/07/20 02:23:42;;;;;;;8.75;6.57;;;24.60;46.40;;;;;;5098507;28;20063;-74
2022/07/20 02:26:08;;;;;;;10.23;6.53;;;24.50;44.80;;;;;;5116327;28;20544;-73
2022/07/20 02:28:33;;;;;;;8.48;6.30;;;24.50;45.50;;;;;;5116182;28;20042;-74
2022/07/20 02:30:59;;;;;;;10.23;7.20;;;24.50;46.20;;;;;;5116198;28;20028;-73
2022/07/20 02:33:25;;;;;;;11.43;7.82;;;24.60;46.20;;;;;;5116311;28;20020;-74
2022/07/20 02:35:51;;;;;;;11.40;8.20;;;24.70;45.80;;;;;;5115335;28;20020;-74
2022/07/20 02:38:17;;;;;;;13.38;8.15;;;24.70;45.00;;;;;;5116045;28;20032;-74
2022/07/20 02:40:42;;;;;;;15.15;8.35;;;24.70;44.60;;;;;;5116018;28;20043;-73
2022/07/20 02:43:08;;;;;;;10.40;7.13;;;24.50;45.60;;;;;;5098135;28;20058;-74
2022/07/20 02:45:34;;;;;;;11.90;7.78;;;24.50;46.00;;;;;;5115821;28;20033;-74
2022/07/20 02:48:02;;;;;;;11.85;7.68;;;24.50;46.90;;;;;;5115877;28;20023;-73
2022/07/20 02:50:33;;;;;;;11.60;7.78;;;24.40;46.80;;;;;;5098365;28;20035;-73
2022/07/20 02:53:00;;;;;;;9.50;7.70;;;24.30;46.90;;;;;;5097888;28;20031;-74
2022/07/20 02:55:25;;;;;;;9.38;7.18;;;24.10;47.50;;;;;;5097814;28;20028;-74
2022/07/20 02:57:52;;;;;;;11.23;7.28;;;23.90;47.50;;;;;;5097735;28;20024;-73
2022/07/20 03:00:19;;;;;;;9.50;7.88;;;23.80;48.00;;;;;;5115775;28;20059;-73
2022/07/20 03:02:44;;;;;;;13.48;9.32;;;23.80;47.30;;;;;;5115610;28;20077;-73
2022/07/20 03:05:10;;;;;;;14.30;9.02;;;23.70;46.80;;;;;;5115298;28;20108;-74
2022/07/20 03:07:35;;;;;;;14.23;8.82;;;23.70;46.20;;;;;;5115697;28;20043;-74
2022/07/20 03:10:01;;;;;;;15.23;8.82;;;23.70;46.90;;;;;;5097654;28;20020;-73
2022/07/20 03:12:27;;;;;;;11.63;8.55;;;23.70;47.20;;;;;;5115392;28;20562;-73
2022/07/20 03:14:53;;;;;;;11.35;8.93;;;23.70;47.00;;;;;;5115335;28;20028;-73
2022/07/20 03:17:18;;;;;;;15.00;8.18;;;23.60;47.10;;;;;;5097355;28;20028;-74
2022/07/20 03:19:45;;;;;;;13.02;8.40;;;23.60;47.60;;;;;;5097475;28;20028;-75
2022/07/20 03:22:11;;;;;;;10.95;7.65;;;23.60;47.30;;;;;;5115181;28;20019;-74
2022/07/20 03:24:37;;;;;;;10.50;7.40;;;23.60;47.30;;;;;;5115058;28;20407;-74
2022/07/20 03:27:03;;;;;;;11.48;7.72;;;23.70;46.80;;;;;;5115093;28;20038;-74
2022/07/20 03:29:29;;;;;;;11.10;7.65;;;23.80;46.50;;;;;;5114965;28;20024;-74
2022/07/20 03:31:55;;;;;;;9.43;7.50;;;23.80;47.00;;;;;;5114977;28;20024;-73
2022/07/20 03:34:20;;;;;;;10.20;7.85;;;23.60;47.40;;;;;;5114928;28;20032;-74
2022/07/20 03:36:48;;;;;;;11.15;7.28;;;23.60;47.50;;;;;;5114910;28;20034;-74
2022/07/20 03:39:15;;;;;;;10.02;7.25;;;23.80;47.20;;;;;;5114889;28;20051;-73
2022/07/20 03:41:40;;;;;;;9.18;7.10;;;23.70;46.70;;;;;;5114825;28;20028;-74
2022/07/20 03:44:06;;;;;;;9.98;6.82;;;23.80;46.30;;;;;;5096705;28;20023;-74
2022/07/20 03:46:31;;;;;;;11.68;6.88;;;23.80;47.00;;;;;;5114659;28;20032;-74
2022/07/20 03:48:57;;;;;;;10.38;6.68;;;23.70;47.00;;;;;;5079163;28;20032;-74
2022/07/20 03:51:23;;;;;;;10.15;6.95;;;23.80;47.00;;;;;;5114638;28;20032;-74
2022/07/20 03:53:48;;;;;;;12.77;6.63;;;23.70;46.30;;;;;;5114573;28;20032;-74
2022/07/20 03:56:14;;;;;;;9.98;6.53;;;23.60;46.20;;;;;;5114536;28;20079;-73
2022/07/20 03:58:39;;;;;;;10.52;7.10;;;23.50;48.00;;;;;;5114504;28;20028;-73
2022/07/20 04:01:05;;;;;;;9.48;5.88;;;23.40;47.70;;;;;;5079965;28;20083;-73
2022/07/20 04:03:31;;;;;;;7.90;5.95;;;23.30;48.30;;;;;;5114408;28;20115;-74
2022/07/20 04:05:56;;;;;;;8.63;5.57;;;23.10;47.70;;;;;;5079581;28;20048;-73
2022/07/20 04:08:22;;;;;;;8.18;5.50;;;23.10;48.80;;;;;;5096487;28;20487;-74
2022/07/20 04:10:47;;;;;;;8.35;5.82;;;23.00;48.80;;;;;;5114268;28;20029;-73
2022/07/20 04:13:13;;;;;;;14.40;6.70;;;22.90;49.10;;;;;;5114261;28;20046;-73
2022/07/20 04:15:39;;;;;;;9.90;5.93;;;22.90;49.20;;;;;;5096443;28;20080;-74
2022/07/20 04:18:04;;;;;;;10.23;7.28;;;23.00;49.40;;;;;;5096154;28;20467;-74
2022/07/20 04:20:30;;;;;;;12.77;7.43;;;23.00;48.80;;;;;;5096246;28;20024;-73
2022/07/20 04:22:55;;;;;;;12.98;7.72;;;23.10;48.30;;;;;;5114072;28;20036;-74
2022/07/20 04:25:22;;;;;;;12.38;7.65;;;23.10;48.30;;;;;;5113919;28;20032;-73
2022/07/20 04:27:49;;;;;;;13.88;8.18;;;23.20;48.30;;;;;;5113920;28;20035;-74
2022/07/20 04:30:16;;;;;;;15.20;8.93;;;23.20;48.50;;;;;;5096012;28;20020;-74
2022/07/20 04:32:42;;;;;;;13.68;9.18;;;23.30;48.90;;;;;;5113926;28;20042;-74
2022/07/20 04:35:09;;;;;;;17.58;9.23;;;23.30;49.20;;;;;;5114032;28;20036;-73
2022/07/20 04:37:36;;;;;;;18.15;10.48;;;23.40;49.70;;;;;;5113867;28;20025;-74
2022/07/20 04:40:03;;;;;;;18.70;12.35;;;23.40;50.50;;;;;;5096120;28;20032;-74
2022/07/20 04:42:28;;;;;;;22.40;12.35;;;23.40;51.10;;;;;;5113772;28;20020;-74
2022/07/20 04:44:54;;;;;;;20.50;11.45;;;23.40;51.40;;;;;;5095899;28;20035;-74
2022/07/20 04:47:19;;;;;;;18.23;12.55;;;23.40;52.10;;;;;;5095953;28;20088;-74
2022/07/20 04:49:45;;;;;;;22.75;13.15;;;23.40;52.90;;;;;;5113712;28;20032;-74
2022/07/20 04:52:11;;;;;;;19.98;13.85;;;23.40;53.30;;;;;;5113628;28;20028;-74
2022/07/20 04:54:36;;;;;;;24.88;14.57;;;23.40;54.20;;;;;;5113654;28;20027;-74
2022/07/20 04:57:02;;;;;;;25.33;14.93;;;23.50;54.60;;;;;;5078992;28;20028;-75
2022/07/20 04:59:28;;;;;;;27.25;15.02;;;23.50;54.90;;;;;;5113384;28;20028;-74
2022/07/20 05:01:54;;;;;;;29.48;15.63;;;23.50;55.40;;;;;;5113554;28;20048;-74
2022/07/20 05:04:19;;;;;;;28.33;16.80;;;23.50;56.00;;;;;;5113536;28;20025;-74
2022/07/20 05:06:45;;;;;;;28.75;17.27;;;23.60;56.50;;;;;;5113285;28;20056;-74
2022/07/20 05:09:11;;;;;;;28.75;16.77;;;23.60;57.20;;;;;;5113407;28;20032;-74
2022/07/20 05:11:38;;;;;;;27.75;17.52;;;23.60;57.90;;;;;;5113422;28;20075;-74
2022/07/20 05:14:04;;;;;;;26.63;17.25;;;23.60;57.70;;;;;;5095688;28;20028;-74
2022/07/20 05:16:29;;;;;;;27.77;17.58;;;23.70;58.30;;;;;;5113565;28;20052;-74
2022/07/20 05:18:55;;;;;;;29.02;18.25;;;23.70;58.40;;;;;;5095459;28;20035;-74
2022/07/20 05:21:21;;;;;;;33.42;19.25;;;23.80;58.90;;;;;;5095475;28;20095;-74
2022/07/20 05:23:46;;;;;;;34.78;19.40;;;23.80;58.80;;;;;;5113321;28;20028;-74
2022/07/20 05:26:12;;;;;;;28.02;18.48;;;23.90;59.00;;;;;;5095328;28;20042;-74
2022/07/20 05:28:43;;;;;;;30.75;19.13;;;23.90;60.30;;;;;;5113214;28;20025;-74
2022/07/20 05:31:10;;;;;;;30.00;18.30;;;23.90;59.70;;;;;;5113226;28;20032;-74
2022/07/20 05:33:36;;;;;;;39.35;20.52;;;23.90;59.40;;;;;;5113378;28;20024;-74
2022/07/20 05:36:03;;;;;;;33.20;20.02;;;23.90;59.80;;;;;;5095515;28;20384;-74
2022/07/20 05:38:29;;;;;;;30.45;19.17;;;23.90;59.80;;;;;;5113238;28;20040;-74
2022/07/20 05:40:55;;;;;;;36.38;19.92;;;24.00;59.70;;;;;;5095471;28;20025;-74
2022/07/20 05:43:21;;;;;;;40.78;20.20;;;24.00;59.70;;;;;;5113151;28;20031;-74
2022/07/20 05:45:47;;;;;;;34.47;19.80;;;24.00;59.70;;;;;;5113092;28;20024;-74
2022/07/20 05:48:13;;;;;;;33.97;19.40;;;24.00;60.20;;;;;;5113270;28;20050;-74
2022/07/20 05:50:39;;;;;;;32.97;18.92;;;24.00;60.40;;;;;;5095180;28;20024;-74
2022/07/20 05:53:06;;;;;;;31.15;20.70;;;24.00;60.20;;;;;;5095174;28;20028;-74
2022/07/20 05:55:34;;;;;;;33.47;21.02;;;24.00;60.60;;;;;;5113162;28;20478;-73
2022/07/20 05:58:00;;;;;;;30.17;20.05;;;24.00;60.90;;;;;;5112999;28;20024;-74
2022/07/20 06:00:25;;;;;;;31.98;19.80;;;24.00;60.70;;;;;;5113028;28;20025;-74
2022/07/20 06:02:51;;;;;;;29.63;18.38;;;24.00;60.70;;;;;;5112939;28;20092;-74
2022/07/20 06:05:17;;;;;;;29.45;18.95;;;24.00;60.20;;;;;;5112727;28;20048;-74
2022/07/20 06:07:42;;;;;;;27.83;18.85;;;24.00;60.50;;;;;;5112931;28;20037;-74
2022/07/20 06:10:08;;;;;;;31.02;18.20;;;24.00;60.20;;;;;;5095019;28;20020;-74
2022/07/20 06:12:34;;;;;;;27.50;18.05;;;24.10;60.50;;;;;;5098183;28;20021;-74
2022/07/20 06:15:00;;;;;;;28.77;18.20;;;24.10;60.10;;;;;;5116482;28;20032;-74
2022/07/20 06:17:36;;;;;;;30.27;17.60;;;24.10;59.80;;;;;;5098542;28;20068;-74
2022/07/20 06:20:07;;;;;;;29.60;18.33;;;24.10;60.00;;;;;;5116558;28;20020;-74
2022/07/20 06:22:34;;;;;;;26.70;17.67;;;24.10;59.70;;;;;;5116358;28;20030;-73
2022/07/20 06:24:59;;;;;;;26.50;17.58;;;24.10;59.50;;;;;;5116236;28;20028;-73
2022/07/20 06:27:25;;;;;;;28.70;17.60;;;24.20;59.50;;;;;;5116355;28;20051;-73
2022/07/20 06:29:51;;;;;;;29.90;17.58;;;24.20;59.20;;;;;;5116191;28;20024;-74
2022/07/20 06:32:16;;;;;;;26.02;16.38;;;24.30;59.30;;;;;;5116214;28;20047;-74
2022/07/20 06:34:42;;;;;;;31.70;16.08;;;24.40;59.20;;;;;;5116166;28;20020;-73
2022/07/20 06:37:07;;;;;;;22.42;15.73;;;24.50;58.80;;;;;;5116116;28;20038;-73
2022/07/20 06:39:33;;;;;;;24.55;15.45;;;24.50;58.80;;;;;;5116044;28;20021;-73
2022/07/20 06:41:59;;;;;;;23.52;14.82;;;24.60;58.20;;;;;;5116070;28;20028;-74
2022/07/20 06:44:24;;;;;;;25.75;14.18;;;24.70;57.30;;;;;;5115937;28;20039;-74
2022/07/20 06:46:50;;;;;;;26.75;14.30;;;24.70;57.20;;;;;;5115821;28;20054;-73
2022/07/20 06:49:16;;;;;;;23.13;13.27;;;24.70;57.00;;;;;;5115923;28;20042;-73
2022/07/20 06:51:41;;;;;;;22.15;13.60;;;24.80;56.70;;;;;;5115853;28;20111;-73
2022/07/20 06:54:07;;;;;;;21.58;13.30;;;24.70;56.60;;;;;;5115807;28;20027;-73
2022/07/20 06:56:33;;;;;;;20.90;13.73;;;24.70;56.20;;;;;;5115766;28;20054;-73
2022/07/20 06:58:58;;;;;;;21.05;12.95;;;24.80;56.20;;;;;;5115726;28;20028;-73
2022/07/20 07:01:24;;;;;;;20.40;12.57;;;24.80;56.10;;;;;;5115795;28;20058;-73
2022/07/20 07:03:50;;;;;;;21.48;12.85;;;24.80;55.70;;;;;;5097707;28;20036;-73
2022/07/20 07:06:16;;;;;;;23.75;12.98;;;24.80;56.40;;;;;;5097657;28;20059;-73
2022/07/20 07:08:42;;;;;;;19.02;12.20;;;24.80;56.10;;;;;;5115468;28;20024;-74
2022/07/20 07:11:07;;;;;;;22.65;12.40;;;24.80;55.70;;;;;;5115477;28;20028;-74
2022/07/20 07:13:33;;;;;;;21.48;11.90;;;24.90;55.30;;;;;;5115402;28;20024;-73
2022/07/20 07:15:59;;;;;;;19.73;11.63;;;24.90;55.10;;;;;;5115320;28;20031;-73
2022/07/20 07:18:24;;;;;;;19.17;11.55;;;24.90;55.00;;;;;;5080786;28;20096;-73
2022/07/20 07:20:50;;;;;;;21.30;11.45;;;25.00;54.80;;;;;;5115395;28;20120;-73
2022/07/20 07:23:15;;;;;;;19.30;10.68;;;25.00;55.70;;;;;;5114970;28;20028;-73
2022/07/20 07:25:41;;;;;;;18.77;11.23;;;24.90;55.80;;;;;;5115100;28;20059;-73
2022/07/20 07:28:07;;;;;;;13.77;10.38;;;25.00;56.00;;;;;;5115130;28;20042;-73
2022/07/20 07:30:33;;;;;;;18.15;11.43;;;25.00;56.10;;;;;;5097093;28;20038;-73
2022/07/20 07:32:58;;;;;;;17.30;10.82;;;25.10;55.60;;;;;;5115043;28;20024;-73
2022/07/20 07:35:24;;;;;;;18.50;10.93;;;25.10;55.50;;;;;;5115134;28;20028;-73
2022/07/20 07:37:50;;;;;;;15.75;10.57;;;25.20;55.20;;;;;;5096981;28;20047;-73
2022/07/20 07:40:16;;;;;;;16.25;10.43;;;25.10;54.90;;;;;;5114973;28;20035;-73
2022/07/20 07:42:41;;;;;;;16.00;9.98;;;25.20;55.70;;;;;;5114842;28;20032;-73
2022/07/20 07:45:08;;;;;;;17.88;10.63;;;25.10;56.10;;;;;;5114784;28;20088;-73
2022/07/20 07:47:34;;;;;;;18.65;11.00;;;25.10;55.80;;;;;;5114911;28;20016;-74
2022/07/20 07:50:00;;;;;;;18.38;10.48;;;25.10;55.00;;;;;;5114741;28;20044;-72
2022/07/20 07:52:27;;;;;;;19.13;12.15;;;25.00;55.30;;;;;;5114667;28;20020;-73
2022/07/20 07:54:53;;;;;;;17.67;10.25;;;24.90;55.40;;;;;;5096763;28;20035;-73
2022/07/20 07:57:18;;;;;;;19.48;11.10;;;24.90;55.40;;;;;;5114505;28;20032;-74
2022/07/20 07:59:44;;;;;;;15.95;10.43;;;24.90;55.60;;;;;;5114496;28;20050;-73
2022/07/20 08:02:09;;;;;;;15.30;10.70;;;25.00;56.40;;;;;;5114485;28;20029;-73
2022/07/20 08:04:35;;;;;;;18.50;10.63;;;25.10;57.10;;;;;;5114450;28;20028;-73
2022/07/20 08:07:01;;;;;;;18.55;11.55;;;25.10;56.20;;;;;;5114143;28;20108;-73
2022/07/20 08:09:26;;;;;;;16.75;10.75;;;25.10;55.90;;;;;;5096438;28;20020;-74
2022/07/20 08:11:52;;;;;;;18.40;11.10;;;25.20;56.00;;;;;;5114278;28;20024;-74
2022/07/20 08:14:18;;;;;;;15.00;10.40;;;25.20;56.10;;;;;;5114269;28;20115;-74
2022/07/20 08:16:44;;;;;;;17.65;10.77;;;25.30;56.40;;;;;;5096450;28;20024;-74
2022/07/20 08:19:10;;;;;;;17.38;10.35;;;25.40;56.60;;;;;;5096370;28;20044;-73
2022/07/20 08:21:36;;;;;;;16.27;10.13;;;25.60;55.20;;;;;;5096156;28;20030;-74
2022/07/20 08:24:03;;;;;;;19.20;10.23;;;25.70;54.80;;;;;;5114095;28;20032;-74
2022/07/20 08:26:28;;;;;;;16.25;9.60;;;25.90;53.70;;;;;;5113935;28;20016;-73
2022/07/20 08:28:54;;;;;;;15.50;10.07;;;26.00;53.00;;;;;;5095936;28;20043;-74
2022/07/20 08:31:20;;;;;;;17.98;9.88;;;26.00;52.80;;;;;;5113933;28;20032;-73
2022/07/20 08:33:47;;;;;;;15.65;10.02;;;26.00;51.90;;;;;;5113355;28;20016;-73
2022/07/20 08:36:17;;;;;;;16.48;9.90;;;25.90;52.30;;;;;;5079413;28;20028;-73
2022/07/20 08:38:43;;;;;;;15.05;9.52;;;26.00;52.70;;;;;;5096029;28;20047;-73
2022/07/20 08:41:09;;;;;;;21.58;12.48;;;26.10;51.90;;;;;;5113954;28;20028;-74
2022/07/20 08:43:35;;;;;;;19.40;11.32;;;26.20;51.80;;;;;;5113805;28;20028;-74
2022/07/20 08:46:02;;;;;;;14.57;9.65;;;26.40;51.90;;;;;;5113668;28;20028;-74
2022/07/20 08:48:27;;;;;;;15.65;9.15;;;26.50;51.70;;;;;;5113675;28;20040;-74
2022/07/20 08:50:54;;;;;;;17.33;9.07;;;26.60;52.00;;;;;;5113681;28;20035;-74
2022/07/20 08:53:20;;;;;;;17.42;9.07;;;26.60;50.80;;;;;;5095946;28;20112;-74
2022/07/20 08:55:46;;;;;;;15.52;9.02;;;26.60;51.10;;;;;;5113654;28;20035;-73
2022/07/20 08:58:12;;;;;;;14.77;8.80;;;26.70;50.40;;;;;;5113555;28;20032;-73
2022/07/20 09:00:39;;;;;;;13.45;8.52;;;26.80;50.00;;;;;;5113544;28;20039;-73
2022/07/20 09:03:07;;;;;;;11.98;8.32;;;27.00;50.10;;;;;;5113542;28;20040;-73
2022/07/20 09:05:38;;;;;;;14.27;8.60;;;27.00;49.60;;;;;;5095361;28;20036;-73
2022/07/20 09:08:05;;;;;;;15.18;8.93;;;27.10;49.00;;;;;;5113576;28;20028;-74
2022/07/20 09:10:34;;;;;;;13.13;8.40;;;27.10;49.90;;;;;;5113496;28;20110;-73
2022/07/20 09:13:08;;;;;;;12.20;8.60;;;27.00;48.60;;;;;;5095654;28;20083;-74
2022/07/20 09:22:59;;;;;;;13.27;8.75;;;27.10;48.20;;;;;;5011851;28;20033;-73
2022/07/20 09:28:56;;;;;;;15.63;8.27;;;27.20;48.10;;;;;;4974116;28;20030;-73
2022/07/20 09:31:30;;;;;;;17.10;9.32;;;27.20;48.30;;;;;;5011807;28;20065;-73
2022/07/20 09:33:59;;;;;;;14.20;8.55;;;27.30;48.20;;;;;;5012633;28;20038;-73
2022/07/20 09:36:27;;;;;;;13.88;8.20;;;27.30;49.00;;;;;;5113337;28;20028;-74
2022/07/20 09:38:53;;;;;;;12.35;7.93;;;27.20;48.50;;;;;;5113343;28;20030;-73
2022/07/20 09:41:31;;;;;;;12.70;8.50;;;27.40;48.00;;;;;;5113210;28;20028;-73
2022/07/20 09:43:58;;;;;;;14.70;8.20;;;27.40;47.50;;;;;;5095275;28;20024;-74
2022/07/20 09:46:26;;;;;;;12.85;8.43;;;27.50;47.30;;;;;;5116162;28;20054;-74
2022/07/20 09:48:52;;;;;;;14.70;9.13;;;27.70;46.70;;;;;;5117079;28;20075;-73
2022/07/20 09:51:22;;;;;;;12.50;7.85;;;27.70;47.20;;;;;;5116982;28;20032;-73
2022/07/20 09:53:49;;;;;;;12.07;8.48;;;27.90;46.60;;;;;;5116972;28;20020;-73
2022/07/20 09:56:17;;;;;;;12.15;8.10;;;27.90;46.30;;;;;;5116922;28;20032;-73
2022/07/20 09:58:49;;;;;;;11.95;8.57;;;28.10;46.80;;;;;;5116855;28;20028;-74
2022/07/20 10:01:33;;;;;;;12.98;8.90;;;28.20;44.70;;;;;;5117484;28;20030;-73
2022/07/20 10:04:01;;;;;;;14.23;7.65;;;28.10;46.20;;;;;;5098866;28;20099;-74
2022/07/20 10:06:28;;;;;;;10.45;7.57;;;28.20;45.10;;;;;;5116392;28;20040;-73
2022/07/20 10:08:54;;;;;;;10.43;7.60;;;28.30;45.60;;;;;;5116626;28;20031;-73
2022/07/20 10:11:22;;;;;;;11.98;8.20;;;28.50;44.50;;;;;;5116470;28;20083;-73
2022/07/20 10:13:49;;;;;;;12.18;8.05;;;28.50;43.90;;;;;;5116271;28;20054;-73
2022/07/20 10:16:29;;;;;;;15.27;8.52;;;28.50;44.10;;;;;;5116564;28;20374;-73
2022/07/20 10:18:56;;;;;;;13.05;8.10;;;28.40;45.00;;;;;;5116717;28;20027;-74
2022/07/20 10:21:39;;;;;;;10.23;7.82;;;28.20;44.10;;;;;;5116482;28;20028;-73
2022/07/20 10:24:15;;;;;;;12.68;7.35;;;28.10;45.70;;;;;;5116433;28;20054;-73
2022/07/20 10:26:41;;;;;;;10.85;6.97;;;27.90;44.30;;;;;;5116462;28;20051;-73
2022/07/20 10:29:07;;;;;;;11.05;8.07;;;27.80;45.80;;;;;;5116227;28;20020;-73
2022/07/20 10:31:53;;;;;;;12.45;8.02;;;27.80;45.20;;;;;;5116243;28;20020;-74
2022/07/20 10:34:40;;;;;;;16.67;9.10;;;27.90;45.40;;;;;;5116238;28;20032;-74
2022/07/20 10:37:21;;;;;;;14.18;7.72;;;27.80;45.90;;;;;;5116323;28;20058;-74
2022/07/20 10:39:47;;;;;;;13.70;8.40;;;27.80;46.20;;;;;;5116108;28;20027;-74
2022/07/20 10:42:34;;;;;;;14.88;8.07;;;27.80;47.50;;;;;;5098078;28;20024;-74
2022/07/20 10:45:23;;;;;;;11.48;8.45;;;27.80;48.10;;;;;;5097981;28;20032;-74
2022/07/20 10:48:22;;;;;;;12.65;7.82;;;27.90;48.80;;;;;;5102990;28;20104;-74
2022/07/20 10:50:53;;;;;;;13.07;8.13;;;27.90;48.30;;;;;;5110817;28;20044;-74
2022/07/20 10:53:24;;;;;;;12.43;8.02;;;28.00;48.00;;;;;;5116035;28;20027;-74
2022/07/20 10:55:53;;;;;;;11.25;7.68;;;28.20;46.90;;;;;;5115838;28;20067;-74
2022/07/20 10:58:21;;;;;;;10.27;7.47;;;28.30;46.30;;;;;;5115260;28;20088;-74
2022/07/20 11:00:52;;;;;;;9.63;7.15;;;28.30;47.10;;;;;;5115677;28;20016;-73
2022/07/20 11:03:45;;;;;;;14.80;7.38;;;28.30;44.90;;;;;;5115665;28;20051;-74
2022/07/20 11:06:20;;;;;;;12.88;7.82;;;28.40;45.20;;;;;;5111283;28;20044;-74
2022/07/20 11:08:52;;;;;;;12.10;7.80;;;28.50;45.80;;;;;;5115605;28;20037;-74
2022/07/20 11:11:21;;;;;;;9.77;7.03;;;28.60;46.50;;;;;;5115779;28;20028;-74
2022/07/20 11:13:48;;;;;;;9.77;7.07;;;28.70;44.60;;;;;;5115441;28;20074;-74
2022/07/20 11:16:17;;;;;;;11.90;7.35;;;28.80;44.60;;;;;;5115421;28;20038;-74
2022/07/20 11:18:42;;;;;;;11.13;7.28;;;28.90;44.60;;;;;;5115317;28;20054;-74
2022/07/20 11:21:11;;;;;;;10.90;7.38;;;28.70;43.90;;;;;;5115313;28;20043;-74
2022/07/20 11:23:44;;;;;;;11.88;7.15;;;28.80;44.10;;;;;;5115237;28;20031;-74
2022/07/20 11:26:12;;;;;;;12.23;7.07;;;28.70;44.60;;;;;;5115060;28;20026;-74
2022/07/20 11:28:45;;;;;;;10.45;7.45;;;28.80;45.00;;;;;;5115045;28;20081;-74
2022/07/20 11:31:10;;;;;;;;;;;28.90;44.70;;;;;;5115745;28;20024;-74
2022/07/20 11:33:40;;;;;;;13.55;7.40;;;29.00;45.90;;;;;;5115051;28;19927;-74
2022/07/20 11:36:27;;;;;;;11.35;7.63;;;28.80;44.10;;;;;;5115010;28;20026;-73
2022/07/20 11:39:05;;;;;;;13.05;7.63;;;29.00;46.50;;;;;;5115014;28;20043;-73
2022/07/20 11:41:31;;;;;;;14.00;7.32;;;29.10;46.60;;;;;;5114933;28;20040;-73
2022/07/20 11:43:57;;;;;;;10.13;6.70;;;29.10;45.20;;;;;;5114872;28;20467;-73
2022/07/20 11:46:29;;;;;;;12.32;6.57;;;29.00;43.60;;;;;;5097127;28;20024;-73
2022/07/20 11:48:57;;;;;;;11.20;6.65;;;28.90;45.00;;;;;;5114837;28;20076;-73
2022/07/20 11:51:23;;;;;;;10.38;5.80;;;29.10;44.60;;;;;;5096707;28;20390;-73
2022/07/20 11:53:49;;;;;;;8.50;6.07;;;29.20;45.60;;;;;;5096761;28;20049;-73
2022/07/20 11:56:18;;;;;;;8.23;5.70;;;29.30;43.40;;;;;;5114748;28;20024;-73
2022/07/20 11:58:47;;;;;;;9.90;5.75;;;29.30;43.30;;;;;;5114457;28;20047;-73
2022/07/20 12:01:19;;;;;;;10.93;6.60;;;29.20;42.10;;;;;;5114528;28;20107;-73
2022/07/20 12:03:49;;;;;;;;;;;29.30;42.40;;;;;;5115099;28;20028;-73
2022/07/20 12:06:15;;;;;;;9.35;5.90;;;29.30;41.90;;;;;;5114234;28;19938;-72
2022/07/20 12:08:42;;;;;;;10.32;5.50;;;29.30;41.00;;;;;;5113530;28;20028;-72
2022/07/20 12:11:09;;;;;;;8.98;5.93;;;29.30;42.00;;;;;;5114363;28;20027;-73
2022/07/20 12:13:49;;;;;;;10.82;6.68;;;29.20;41.10;;;;;;5114273;28;20024;-72
2022/07/20 12:16:17;;;;;;;9.25;5.88;;;29.30;41.90;;;;;;5114270;28;20024;-72
2022/07/20 12:18:51;;;;;;;8.70;6.00;;;29.40;41.60;;;;;;5114214;28;20024;-72
2022/07/20 12:21:27;;;;;;;10.35;6.63;;;29.60;42.10;;;;;;5114215;28;20020;-72
2022/07/20 12:23:55;;;;;;;9.13;5.70;;;29.80;41.40;;;;;;5114288;28;20024;-72
2022/07/20 12:26:27;;;;;;;11.32;6.45;;;30.00;41.90;;;;;;5114155;28;20020;-72
2022/07/20 12:28:55;;;;;;;10.73;7.20;;;30.10;41.60;;;;;;5114007;28;20036;-72
2022/07/20 12:31:23;;;;;;;12.65;8.05;;;30.00;41.60;;;;;;5113962;28;20042;-72
2022/07/20 12:34:04;;;;;;;9.88;7.22;;;30.00;41.90;;;;;;5114136;28;20046;-72
2022/07/20 12:36:34;;;;;;;11.02;7.20;;;30.00;42.90;;;;;;5113931;28;20048;-72
2022/07/20 12:39:01;;;;;;;14.48;7.88;;;30.00;43.60;;;;;;5113848;28;20024;-72
2022/07/20 12:41:26;;;;;;;10.75;7.35;;;30.00;42.90;;;;;;5113854;28;20049;-72
2022/07/20 12:43:52;;;;;;;11.68;7.57;;;30.10;42.30;;;;;;5113784;28;20036;-72
2022/07/20 12:46:18;;;;;;;15.05;7.68;;;30.20;42.70;;;;;;5113709;28;20024;-72
2022/07/20 12:48:50;;;;;;;14.10;8.15;;;30.20;42.50;;;;;;5113669;28;20020;-72
2022/07/20 12:51:16;;;;;;;14.82;7.45;;;30.10;41.70;;;;;;5113741;28;20016;-72